Latest Weather Observations for Pallamana

IDS60801

Issued at 7:31 pm CDT Thursday 19 October 2017 (issued every 30 minutes, with the page automatically refreshed every 10 minutes)

About weather observations | Map of weather stations | Latest weather observations for SA | Other Formats
Station Details ID: 024584 Name: PALLAMANA AERODROME Lat: -35.06 Lon: 139.23 Height: 45.0 m
Data from the previous 72 hours. | See also: Recent months at Pallamana
Date/Time
CDT
Temp
°C
App
Temp
°C
Dew
Point
°C
Rel
Hum
%
Delta-T
°C
Wind Press
QNH
hPa
Press
MSL
hPa
Rain since
9am
mm
Dir  Spd
km/h
Gust
km/h
Spd
kts
Gust
kts
19/07:30pm 15.1 10.3 7.4 60 3.8 SSW 22 32 12 17 1025.2 1025.2 0.0
19/07:00pm 15.9 10.2 6.7 54 4.5 SSW 26 43 14 23 1024.6 1024.6 0.0
19/06:30pm 16.6 10.7 7.4 54 4.6 S 28 39 15 21 1024.2 1024.2 0.0
19/06:00pm 17.5 11.4 6.8 49 5.3 SSW 28 41 15 22 1023.7 1023.7 0.0
19/05:30pm 18.1 11.0 6.6 47 5.7 S 33 44 18 24 1023.4 1023.4 0.0
19/05:00pm 18.2 11.9 7.2 48 5.5 SSW 30 39 16 21 1023.3 1023.3 0.0
19/04:30pm 18.8 12.8 7.1 46 5.9 SSW 28 39 15 21 1022.9 1022.9 0.0
19/04:00pm 20.3 14.8 7.6 44 6.5 SSW 26 37 14 20 1022.8 1022.8 0.0
19/03:30pm 19.9 15.0 8.3 47 6.0 SSW 24 35 13 19 1022.5 1022.5 0.0
19/03:00pm 18.6 13.3 8.5 52 5.2 SSW 26 35 14 19 1022.6 1022.6 0.0
19/02:30pm 17.6 12.0 8.9 56 4.5 SSW 28 37 15 20 1022.8 1022.8 0.0
19/02:00pm 17.8 12.7 9.1 56 4.5 SSW 26 39 14 21 1022.4 1022.4 0.0
19/01:30pm 18.7 13.4 9.8 56 4.7 SSW 28 37 15 20 1022.2 1022.2 0.0
19/01:00pm 18.3 13.8 10.0 58 4.4 S 24 35 13 19 1022.1 1022.1 0.0
19/12:30pm 19.0 13.2 10.9 59 4.4 SSW 32 39 17 21 1022.1 1022.1 0.0
19/12:00pm 19.0 14.8 11.1 60 4.3 S 24 35 13 19 1021.7 1021.7 0.0
19/11:30am 19.6 15.6 11.8 60 4.3 SSW 24 33 13 18 1021.5 1021.5 0.0
19/11:00am 20.0 15.8 12.5 62 4.2 SSW 26 35 14 19 1021.2 1021.2 0.0
19/10:30am 19.1 14.6 12.7 66 3.6 SSW 28 35 15 19 1020.6 1020.6 0.0
19/10:00am 19.1 15.3 13.5 70 3.2 SSW 26 33 14 18 1020.5 1020.5 0.0
19/09:30am 18.8 15.2 14.1 74 2.7 SSW 26 35 14 19 1019.4 1019.3 0.0
19/09:00am 21.1 18.4 14.6 66 3.8 SW 22 30 12 16 1019.0 1018.9 0.0
19/08:30am 21.3 18.5 14.3 64 4.1 WSW 22 32 12 17 1017.8 1017.7 0.0
19/08:00am 21.6 17.1 13.8 61 4.5 WNW 30 44 16 24 1016.8 1016.7 0.0
19/07:32am 21.5 17.0 13.9 62 4.4 WNW 30 48 16 26 1016.5 1016.4 0.0
19/07:30am 21.5 16.7 13.9 62 4.4 WNW 32 48 17 26 1016.5 1016.4 0.0
19/07:00am 21.8 17.5 13.3 58 4.9 WNW 28 43 15 23 1015.9 1015.8 0.0
19/06:30am 22.0 18.3 12.7 55 5.3 WNW 24 37 13 20 1015.4 1015.3 0.0
19/06:00am 22.1 17.2 12.4 54 5.5 W 30 41 16 22 1014.7 1014.6 0.0
19/05:50am 22.3 16.9 12.2 52 5.7 WNW 32 50 17 27 1014.5 1014.4 0.0
19/05:40am 22.4 18.5 12.1 52 5.8 WNW 24 35 13 19 1014.5 1014.4 0.0
19/05:30am 21.0 20.0 13.3 61 4.4 WNW 11 15 6 8 1014.5 1014.4 0.0
19/05:00am 20.8 20.1 13.3 62 4.3 NNE 9 15 5 8 1014.3 1014.2 0.0
19/04:30am 21.4 20.5 12.6 57 5.0 NE 9 17 5 9 1013.8 1013.7 0.0
19/04:00am 20.3 19.2 14.3 68 3.5 ENE 13 19 7 10 1014.3 1014.2 0.0
19/03:30am 19.0 18.9 16.0 83 1.8 NNE 11 13 6 7 1015.6 1015.5 0.0
19/03:00am 19.2 19.6 14.7 75 2.6 SE 6 7 3 4 1015.9 1015.8 0.0
19/02:30am 19.6 21.2 15.0 75 2.7 CALM 0 4 0 2 1016.0 1015.9 0.0
19/02:00am 19.5 19.7 14.3 72 3.0 SSW 6 7 3 4 1016.3 1016.2 0.0
19/01:30am 19.7 19.3 14.2 70 3.2 SSW 9 13 5 7 1016.4 1016.3 0.0
19/01:00am 20.5 20.1 14.1 66 3.7 S 9 13 5 7 1016.1 1016.0 0.0
19/12:30am 20.7 20.6 13.8 64 4.0 S 7 9 4 5 1015.9 1015.8 0.0
19/12:00am 21.6 20.7 13.6 60 4.6 S 11 13 6 7 1015.8 1015.7 0.0
 
Date/Time
CDT
Temp
°C
App
Temp
°C
Dew
Point
°C
Rel
Hum
%
Delta-T
°C
Wind Press
QNH
hPa
Press
MSL
hPa
Rain since
9am
mm
Dir  Spd
km/h
Gust
km/h
Spd
kts
Gust
kts
18/11:30pm 21.6 21.3 13.4 59 4.7 SSW 7 7 4 4 1015.7 1015.6 0.0
18/11:00pm 22.7 21.0 13.6 56 5.3 SW 15 20 8 11 1015.4 1015.3 0.0
18/10:30pm 23.7 20.6 13.4 52 6.0 WSW 22 32 12 17 1015.6 1015.5 0.0
18/10:08pm 24.8 21.6 13.1 48 6.8 WNW 22 39 12 21 1015.8 1015.7 0.0
18/10:00pm 26.5 25.1 12.3 41 8.2 NW 11 20 6 11 1015.2 1015.1 0.0
18/09:52pm 26.8 24.3 12.3 40 8.4 NW 17 32 9 17 1015.1 1015.0 0.0
18/09:30pm 22.5 23.3 12.7 54 5.6 CALM 0 0 0 0 1013.1 1013.0 0.0
18/09:00pm 25.0 26.1 13.6 49 6.7 CALM 0 0 0 0 1013.0 1012.9 0.0
18/08:30pm 26.0 25.6 13.0 44 7.6 SSE 7 9 4 5 1012.9 1012.8 0.0
18/08:00pm 28.6 26.9 12.6 37 9.4 SE 13 19 7 10 1012.7 1012.6 0.0
18/07:30pm 29.1 27.8 11.2 33 10.3 SW 9 17 5 9 1012.5 1012.4 0.0
18/07:00pm 30.3 27.6 11.6 31 10.9 WSW 17 26 9 14 1012.3 1012.2 0.0
18/06:30pm 31.2 28.0 11.2 29 11.6 WSW 19 24 10 13 1012.0 1011.9 0.0
18/06:00pm 32.8 28.5 8.0 21 13.8 NW 20 26 11 14 1011.8 1011.7 0.0
18/05:30pm 33.5 29.5 8.4 21 14.1 N 19 28 10 15 1011.7 1011.6 0.0
18/05:00pm 34.3 29.3 8.1 20 14.7 N 24 33 13 18 1011.5 1011.4 0.0
18/04:30pm 33.2 28.7 8.4 21 13.9 N 22 28 12 15 1011.7 1011.6 0.0
18/04:00pm 33.7 28.5 8.8 21 14.1 N 26 37 14 20 1012.0 1011.9 0.0
18/03:30pm 34.3 29.5 8.7 20 14.5 N 24 39 13 21 1012.3 1012.2 0.0
18/03:00pm 34.1 29.6 8.6 21 14.4 N 22 33 12 18 1012.5 1012.4 0.0
18/02:30pm 34.3 28.6 8.4 20 14.6 N 28 39 15 21 1013.0 1012.9 0.0
18/02:14pm 34.7 28.5 7.9 19 15.0 N 30 57 16 31 1013.1 1013.0 0.0
18/02:00pm 34.5 28.8 8.5 20 14.7 N 28 39 15 21 1013.5 1013.4 0.0
18/01:30pm 33.6 27.2 8.5 21 14.1 NNE 32 50 17 27 1013.8 1013.7 0.0
18/01:07pm 34.0 27.9 8.4 20 14.4 N 30 48 16 26 1014.2 1014.1 0.0
18/01:00pm 33.6 27.0 8.5 21 14.1 N 33 48 18 26 1014.2 1014.1 0.0
18/12:30pm 33.6 27.0 7.9 20 14.3 N 32 46 17 25 1014.7 1014.6 0.0
18/12:00pm 33.2 25.7 8.1 21 14.0 N 37 52 20 28 1014.9 1014.8 0.0
18/11:48am 33.4 25.9 7.8 20 14.2 N 37 56 20 30 1015.1 1015.0 0.0
18/11:30am 32.4 25.7 8.1 22 13.5 NNE 33 50 18 27 1015.3 1015.2 0.0
18/11:24am 32.6 25.1 8.1 22 13.6 N 37 56 20 30 1015.4 1015.3 0.0
18/11:00am 32.0 24.2 8.2 23 13.2 N 39 48 21 26 1015.6 1015.5 0.0
18/10:30am 31.5 24.4 7.9 23 13.0 NNE 35 50 19 27 1015.7 1015.6 0.0
18/10:00am 30.6 23.3 7.4 23 12.6 NNE 35 46 19 25 1016.1 1016.0 0.0
18/09:30am 29.6 22.7 7.4 24 12.0 NNE 33 48 18 26 1016.1 1016.0 0.0
18/09:00am 27.4 22.0 8.2 29 10.4 N 26 35 14 19 1016.2 1016.1 0.0
18/08:30am 24.3 19.4 8.4 36 8.5 NNE 24 30 13 16 1016.2 1016.1 0.0
18/08:00am 22.4 18.6 9.2 43 7.1 N 19 24 10 13 1016.3 1016.2 0.0
18/07:30am 19.6 16.7 9.6 52 5.3 NNW 15 17 8 9 1016.1 1016.0 0.0
18/07:00am 16.5 14.2 8.9 61 3.9 NNW 11 13 6 7 1015.9 1015.8 0.0
18/06:52am 15.4 13.7 8.5 63 3.5 N 7 9 4 5 1015.9 1015.8 0.0
18/06:30am 13.8 12.1 7.7 66 3.0 N 6 7 3 4 1015.7 1015.6 0.0
18/06:00am 14.6 12.9 8.4 66 3.1 N 7 9 4 5 1015.5 1015.4 0.0
18/05:30am 15.0 13.3 8.2 64 3.4 NNW 7 9 4 5 1015.5 1015.4 0.0
18/05:00am 16.7 14.3 8.7 59 4.1 N 11 13 6 7 1015.4 1015.3 0.0
18/04:30am 16.8 14.4 8.6 58 4.2 N 11 13 6 7 1015.3 1015.2 0.0
18/04:00am 16.7 14.7 8.7 59 4.1 N 9 11 5 6 1015.2 1015.1 0.0
18/03:30am 17.6 14.8 8.7 56 4.6 N 13 13 7 7 1015.4 1015.3 0.0
18/03:00am 15.2 13.1 8.3 63 3.5 NNW 9 11 5 6 1015.5 1015.4 0.0
18/02:30am 15.0 13.5 8.5 65 3.3 NNW 6 9 3 5 1015.7 1015.6 0.0
18/02:00am 15.8 13.8 8.8 63 3.6 NNW 9 11 5 6 1015.9 1015.8 0.0
18/01:30am 15.8 13.3 8.3 61 3.8 NNW 11 11 6 6 1016.2 1016.1 0.0
18/01:00am 19.2 17.1 8.4 49 5.6 NNW 9 13 5 7 1016.4 1016.3 0.0
18/12:30am 21.1 18.2 8.3 43 6.7 NNW 13 15 7 8 1016.5 1016.4 0.0
18/12:00am 20.3 17.8 8.2 45 6.3 NNW 11 15 6 8 1016.5 1016.4 0.0
 
Date/Time
CDT
Temp
°C
App
Temp
°C
Dew
Point
°C
Rel
Hum
%
Delta-T
°C
Wind Press
QNH
hPa
Press
MSL
hPa
Rain since
9am
mm
Dir  Spd
km/h
Gust
km/h
Spd
kts
Gust
kts
17/11:30pm 21.9 18.6 8.2 41 7.2 NNW 15 17 8 9 1016.5 1016.4 0.0
17/11:00pm 24.3 20.6 8.1 35 8.6 N 17 22 9 12 1016.4 1016.3 0.0
17/10:30pm 24.2 21.3 8.0 35 8.6 N 13 17 7 9 1016.3 1016.2 0.0
17/10:00pm 26.2 21.8 7.3 30 10.0 NE 20 28 11 15 1016.0 1015.9 0.0
17/09:30pm 25.5 22.0 7.3 31 9.6 NE 15 19 8 10 1015.8 1015.7 0.0
17/09:00pm 25.7 23.2 8.2 33 9.4 NE 11 13 6 7 1015.8 1015.7 0.0
17/08:30pm 27.0 24.8 7.8 29 10.3 NNE 9 11 5 6 1015.8 1015.7 0.0
17/08:00pm 27.7 25.4 7.6 28 10.8 NE 9 11 5 6 1015.3 1015.2 0.0
17/07:30pm 29.0 26.3 7.3 25 11.7 NNE 11 13 6 7 1014.9 1014.8 0.0
17/07:00pm 31.0 26.9 6.1 21 13.3 NNE 17 20 9 11 1014.8 1014.7 0.0
17/06:30pm 32.0 27.2 5.8 19 14.0 NNE 20 32 11 17 1014.5 1014.4 0.0
17/06:00pm 32.8 26.4 5.1 17 14.7 NNE 28 37 15 20 1014.5 1014.4 0.0
17/05:30pm 33.1 27.3 4.3 16 15.1 NNE 24 33 13 18 1014.3 1014.2 0.0
17/05:00pm 33.6 27.4 4.3 16 15.4 NNE 26 39 14 21 1014.2 1014.1 0.0
17/04:30pm 33.8 27.8 3.3 14 15.8 NE 24 39 13 21 1014.1 1014.0 0.0
17/04:14pm 33.6 26.7 2.8 14 15.8 NNE 28 46 15 25 1014.1 1014.0 0.0
17/04:00pm 34.3 28.7 3.7 14 16.0 N 22 35 12 19 1014.1 1014.0 0.0
17/03:30pm 34.0 27.1 2.6 14 16.1 N 28 41 15 22 1014.3 1014.2 0.0
17/03:00pm 33.9 26.9 1.9 13 16.2 N 28 41 15 22 1014.7 1014.6 0.0
17/02:30pm 33.9 25.9 0.2 11 16.6 NNE 32 50 17 27 1015.4 1015.3 0.0
17/02:00pm 33.2 24.9 -0.4 11 16.3 N 33 52 18 28 1015.6 1015.5 0.0
17/01:31pm 33.5 25.0 -3.0 9 17.0 N 32 52 17 28 1016.0 1015.9 0.0
17/01:30pm 33.6 25.2 -2.2 10 16.9 N 32 44 17 24 1016.0 1015.9 0.0
17/01:00pm 32.3 23.7 -2.5 10 16.2 NNE 33 46 18 25 1016.4 1016.3 0.0
17/12:37pm 32.6 24.4 0.3 12 15.8 N 33 52 18 28 1016.6 1016.5 0.0
17/12:30pm 32.4 24.3 1.0 13 15.5 N 33 46 18 25 1016.6 1016.5 0.0
17/12:08pm 32.1 24.0 0.7 13 15.4 NNE 33 52 18 28 1016.9 1016.8 0.0
17/12:00pm 32.3 23.8 1.2 14 15.4 N 35 50 19 27 1017.0 1016.9 0.0
17/11:33am 31.3 22.0 0.4 14 15.0 NNE 39 57 21 31 1017.2 1017.1 0.0
17/11:30am 31.6 21.9 0.7 14 15.1 N 41 54 22 29 1017.3 1017.2 0.0
17/11:01am 31.3 22.9 1.6 15 14.7 NNE 35 54 19 29 1017.5 1017.4 0.0
17/11:00am 31.6 23.8 2.7 16 14.6 N 33 48 18 26 1017.5 1017.4 0.0
17/10:54am 31.1 23.9 3.1 17 14.2 NNE 30 48 16 26 1017.6 1017.5 0.0
17/10:30am 30.0 24.3 4.7 20 13.1 NE 24 35 13 19 1017.8 1017.7 0.0
17/10:00am 28.2 22.1 4.8 22 12.0 NNE 26 33 14 18 1017.9 1017.8 0.0
17/09:30am 26.6 20.1 4.7 24 11.1 NNE 28 35 15 19 1018.1 1018.0 0.0
17/09:00am 24.3 19.8 5.9 30 9.4 NNE 19 26 10 14 1018.6 1018.5 0.0
17/08:30am 21.6 18.7 6.7 38 7.6 NNE 11 15 6 8 1018.4 1018.3 0.0
17/08:00am 18.2 15.9 7.3 49 5.5 N 9 13 5 7 1018.4 1018.3 0.0
17/07:30am 14.4 12.0 7.0 61 3.6 N 9 11 5 6 1018.1 1018.0 0.0
17/07:00am 11.9 9.1 6.9 71 2.4 N 11 13 6 7 1017.8 1017.7 0.0
17/06:30am 11.3 8.0 6.2 71 2.4 N 13 15 7 8 1017.7 1017.6 0.0
17/06:00am 12.0 9.1 6.5 69 2.6 NNW 11 13 6 7 1017.3 1017.2 0.0
17/05:30am 9.1 6.8 5.6 79 1.6 N 7 7 4 4 1017.2 1017.1 0.0
17/05:00am 10.4 8.2 6.3 76 1.9 NE 7 7 4 4 1016.9 1016.8 0.0
17/04:30am 9.7 7.6 5.8 77 1.8 NW 6 7 3 4 1016.6 1016.5 0.0
17/04:00am 10.0 7.9 5.6 74 2.0 NW 6 7 3 4 1016.7 1016.6 0.0
17/03:30am 11.5 10.8 6.9 73 2.2 CALM 0 0 0 0 1016.8 1016.7 0.0
17/03:00am 12.4 11.8 7.2 70 2.5 CALM 0 0 0 0 1016.9 1016.8 0.0
17/02:30am 12.4 11.7 7.0 69 2.6 CALM 0 0 0 0 1016.9 1016.8 0.0
17/02:00am 13.8 13.4 8.2 69 2.8 CALM 0 0 0 0 1017.1 1017.0 0.0
17/01:30am 13.0 12.5 7.9 71 2.5 CALM 0 0 0 0 1017.4 1017.3 0.0
17/01:00am 13.3 12.8 7.8 69 2.7 CALM 0 7 0 4 1017.8 1017.7 0.0
17/12:30am 15.9 14.4 8.6 62 3.7 NNW 6 11 3 6 1017.9 1017.8 0.0
17/12:00am 17.0 15.5 8.6 57 4.3 W 6 9 3 5 1018.1 1018.0 0.0
 
Date/Time
CDT
Temp
°C
App
Temp
°C
Dew
Point
°C
Rel
Hum
%
Delta-T
°C
Wind Press
QNH
hPa
Press
MSL
hPa
Rain since
9am
mm
Dir  Spd
km/h
Gust
km/h
Spd
kts
Gust
kts
16/11:30pm 20.0 16.8 8.3 47 6.1 W 15 19 8 10 1018.3 1018.2 0.0
16/11:00pm 20.5 17.3 8.4 45 6.3 W 15 20 8 11 1018.3 1018.2 0.0
16/10:30pm 21.2 17.6 8.2 43 6.8 W 17 19 9 10 1018.2 1018.1 0.0
16/10:00pm 21.0 17.7 8.2 43 6.7 W 15 20 8 11 1018.1 1018.0 0.0
16/09:30pm 21.2 19.0 7.9 42 6.9 WNW 9 13 5 7 1018.1 1018.0 0.0
16/09:00pm 22.4 20.3 8.4 40 7.4 S 9 13 5 7 1017.7 1017.6 0.0
16/08:30pm 23.5 20.7 6.9 34 8.6 S 11 15 6 8 1017.4 1017.3 0.0
16/08:00pm 24.8 21.8 4.3 26 10.2 SSE 9 17 5 9 1017.1 1017.0 0.0

Other Formats:

Comma delimited format used in spreadsheet applications
http://www.bom.gov.au/fwo/IDS60801/IDS60801.95818.axf

JavaScript Object Notation format (JSON) in row-major order
http://www.bom.gov.au/fwo/IDS60801/IDS60801.95818.json